createdAt,value
2022-12-26T00:00:06.395Z,6
2022-12-26T00:01:05.794Z,6
2022-12-26T00:02:06.300Z,6
2022-12-26T00:03:06.382Z,5.9
2022-12-26T00:04:06.995Z,6
2022-12-26T00:05:05.394Z,6
2022-12-26T00:06:05.862Z,6
2022-12-26T00:07:06.264Z,6
2022-12-26T00:08:05.857Z,6
2022-12-26T00:09:06.286Z,6
2022-12-26T00:10:06.493Z,6
2022-12-26T00:11:06.367Z,6
2022-12-26T00:12:06.201Z,6
2022-12-26T00:13:43.865Z,6.1
2022-12-26T00:15:06.599Z,6.1
2022-12-26T00:16:05.718Z,6.1
2022-12-26T00:17:06.235Z,6.1
2022-12-26T00:18:05.779Z,6.1
2022-12-26T00:19:06.543Z,7
2022-12-26T00:20:05.391Z,6.1
2022-12-26T00:21:05.774Z,6.1
2022-12-26T00:22:05.803Z,6.1
2022-12-26T00:23:06.395Z,6.1
2022-12-26T00:24:06.577Z,6.1
2022-12-26T00:25:05.942Z,7
2022-12-26T00:26:05.482Z,7
2022-12-26T00:27:06.388Z,7
2022-12-26T00:28:05.863Z,7
2022-12-26T00:29:06.683Z,7
2022-12-26T00:30:06.258Z,6.1
2022-12-26T00:31:06.363Z,6.1
2022-12-26T00:32:05.827Z,6.2
2022-12-26T00:33:06.241Z,6.2
2022-12-26T00:34:05.889Z,6.2
2022-12-26T00:35:06.522Z,6.2
2022-12-26T00:36:06.417Z,6.2
2022-12-26T00:37:06.297Z,6.2
2022-12-26T00:38:05.865Z,7
2022-12-26T00:39:05.646Z,7
2022-12-26T00:40:06.286Z,6.3
2022-12-26T00:41:05.690Z,6.3
2022-12-26T00:42:06.571Z,6.3
2022-12-26T00:43:06.134Z,6.3
2022-12-26T00:44:05.658Z,6.4
2022-12-26T00:45:06.187Z,6.4
2022-12-26T00:46:06.611Z,6.4
2022-12-26T00:47:06.742Z,6.4
2022-12-26T00:48:06.059Z,6.4
2022-12-26T00:49:06.479Z,7
2022-12-26T00:50:19.231Z,7
2022-12-26T00:51:05.857Z,7
2022-12-26T00:52:05.641Z,6.4
2022-12-26T00:53:05.881Z,6.4
2022-12-26T00:54:06.617Z,6.5
2022-12-26T00:55:06.084Z,6.5
2022-12-26T00:56:06.325Z,7
2022-12-26T00:57:04.921Z,7
2022-12-26T00:58:05.637Z,6.5
2022-12-26T00:59:06.397Z,6.6
2022-12-26T01:00:05.888Z,6.6
2022-12-26T01:01:06.949Z,6.6
2022-12-26T01:02:06.929Z,6.6
2022-12-26T01:03:06.525Z,6.6
2022-12-26T01:04:05.702Z,7
2022-12-26T01:05:05.553Z,7
2022-12-26T01:06:06.198Z,6.6
2022-12-26T01:07:06.507Z,6.6
2022-12-26T01:08:27.277Z,6.6
2022-12-26T01:09:05.930Z,6.6
2022-12-26T01:10:05.685Z,6.6
2022-12-26T01:11:06.475Z,6.6
2022-12-26T01:12:06.552Z,6.6
2022-12-26T01:13:05.986Z,6.6
2022-12-26T01:14:06.186Z,7
2022-12-26T01:15:05.896Z,6.6
2022-12-26T01:16:06.207Z,6.6
2022-12-26T01:17:06.263Z,7
2022-12-26T01:18:06.340Z,6.6
2022-12-26T01:19:05.631Z,6.6
2022-12-26T01:20:06.290Z,6.6
2022-12-26T01:21:05.060Z,6.6
2022-12-26T01:22:05.718Z,6.6
2022-12-26T01:23:06.447Z,6.6
2022-12-26T01:24:06.067Z,6.6
2022-12-26T01:25:06.309Z,6.6
2022-12-26T01:26:23.797Z,6.6
2022-12-26T01:27:06.006Z,7
2022-12-26T01:28:06.476Z,6.6
2022-12-26T01:29:06.097Z,6.6
2022-12-26T01:30:06.680Z,6.6
2022-12-26T01:31:05.761Z,6.6
2022-12-26T01:32:06.797Z,6.6
2022-12-26T01:33:05.667Z,6.6
2022-12-26T01:34:05.010Z,6.5
2022-12-26T01:35:06.459Z,6.5
2022-12-26T01:36:06.084Z,6.5
2022-12-26T01:37:05.785Z,6.5
2022-12-26T01:38:06.319Z,6.4
2022-12-26T01:39:06.329Z,6.4
2022-12-26T01:40:06.675Z,6.4
2022-12-26T01:41:06.258Z,6.4
2022-12-26T01:42:05.727Z,6.4
2022-12-26T01:43:06.254Z,6.4
2022-12-26T01:44:05.942Z,6.4
2022-12-26T01:45:05.587Z,6.3
2022-12-26T01:46:06.076Z,6.3
2022-12-26T01:47:06.299Z,6.3
2022-12-26T01:48:05.783Z,6.3
2022-12-26T01:49:06.441Z,6.3
2022-12-26T01:50:05.868Z,6.2
2022-12-26T01:51:06.308Z,6.2
2022-12-26T01:52:05.676Z,6.1
2022-12-26T01:53:06.352Z,6.1
2022-12-26T01:54:46.076Z,6
2022-12-26T01:55:05.936Z,6
2022-12-26T01:56:05.727Z,6
2022-12-26T01:57:05.405Z,6
2022-12-26T01:58:05.831Z,6
2022-12-26T01:59:06.522Z,6
2022-12-26T02:00:06.285Z,6
2022-12-26T02:01:06.531Z,5.9
2022-12-26T02:02:07.127Z,5.8
2022-12-26T02:03:06.342Z,5.8
2022-12-26T02:04:05.852Z,5.8
2022-12-26T02:05:04.907Z,5.8
2022-12-26T02:06:05.932Z,5.8
2022-12-26T02:07:06.312Z,5.7
2022-12-26T02:08:05.985Z,5.7
2022-12-26T02:09:04.649Z,5.7
2022-12-26T02:10:05.961Z,5.7
2022-12-26T02:11:06.394Z,5.7
2022-12-26T02:12:41.746Z,5.7
2022-12-26T02:14:06.164Z,5.7
2022-12-26T02:15:06.058Z,5.7
2022-12-26T02:16:06.363Z,5.7
2022-12-26T02:17:06.715Z,5.8
2022-12-26T02:18:05.683Z,6
2022-12-26T02:19:06.295Z,5.8
2022-12-26T02:20:06.508Z,5.9
2022-12-26T02:21:05.748Z,5.9
2022-12-26T02:22:06.489Z,5.9
2022-12-26T02:23:06.101Z,5.9
2022-12-26T02:24:06.243Z,5.9
2022-12-26T02:25:04.999Z,6
2022-12-26T02:26:05.890Z,6
2022-12-26T02:27:06.553Z,6
2022-12-26T02:28:06.127Z,6
2022-12-26T02:29:05.548Z,6.1
2022-12-26T02:30:06.301Z,6.1
2022-12-26T02:31:07.134Z,6.1
2022-12-26T02:32:06.589Z,6.1
2022-12-26T02:33:06.423Z,6.2
2022-12-26T02:34:06.080Z,6.2
2022-12-26T02:35:06.144Z,7
2022-12-26T02:36:05.711Z,6.2
2022-12-26T02:37:05.751Z,6.2
2022-12-26T02:38:06.608Z,6.2
2022-12-26T02:39:46.505Z,6.2
2022-12-26T02:40:06.082Z,7
2022-12-26T02:41:06.478Z,7
2022-12-26T02:42:05.606Z,6.2
2022-12-26T02:43:06.082Z,6.2
2022-12-26T02:44:06.203Z,6.3
2022-12-26T02:45:05.754Z,6.2
2022-12-26T02:46:06.269Z,7
2022-12-26T02:47:06.433Z,6.2
2022-12-26T02:48:06.397Z,6.2
2022-12-26T02:49:05.779Z,6.2
2022-12-26T02:50:05.597Z,6.2
2022-12-26T02:51:06.023Z,6.3
2022-12-26T02:52:06.143Z,6.3
2022-12-26T02:53:05.569Z,6.3
2022-12-26T02:54:05.879Z,6.3
2022-12-26T02:55:06.047Z,6.3
2022-12-26T02:56:06.577Z,6.2
2022-12-26T02:57:05.749Z,6.2
2022-12-26T02:58:05.359Z,6.3
2022-12-26T02:59:06.011Z,6.3
2022-12-26T03:00:06.302Z,6.3
2022-12-26T03:01:06.788Z,6.3
2022-12-26T03:02:06.581Z,6.3
2022-12-26T03:03:05.913Z,6.3
2022-12-26T03:04:06.130Z,6.3
2022-12-26T03:05:06.387Z,6.3
2022-12-26T03:06:04.647Z,6.3
2022-12-26T03:07:05.885Z,6.3
2022-12-26T03:08:06.526Z,6.3
2022-12-26T03:09:04.608Z,6.3
2022-12-26T03:10:05.367Z,6.3
2022-12-26T03:11:06.474Z,6.3
2022-12-26T03:12:06.024Z,6.3
2022-12-26T03:13:06.082Z,6.2
2022-12-26T03:14:06.196Z,6.2
2022-12-26T03:15:06.001Z,6.2
2022-12-26T03:16:06.156Z,6.2
2022-12-26T03:17:06.540Z,6.2
2022-12-26T03:18:06.251Z,6.2
2022-12-26T03:19:06.200Z,6.2
2022-12-26T03:20:06.506Z,6.2
2022-12-26T03:21:05.554Z,6.2
2022-12-26T03:22:05.669Z,7
2022-12-26T03:23:06.080Z,6.2
2022-12-26T03:24:06.368Z,6.2
2022-12-26T03:25:05.984Z,6.2
2022-12-26T03:26:06.124Z,7
2022-12-26T03:27:05.879Z,7
2022-12-26T03:28:05.970Z,6.2
2022-12-26T03:29:06.483Z,6.2
2022-12-26T03:30:05.639Z,6.2
2022-12-26T03:31:06.210Z,6.2
2022-12-26T03:32:06.311Z,6.3
2022-12-26T03:33:05.662Z,6.3
2022-12-26T03:34:06.119Z,6.3
2022-12-26T03:35:05.877Z,6.3
2022-12-26T03:36:05.668Z,6.3
2022-12-26T03:37:05.628Z,6.3
2022-12-26T03:38:06.013Z,6.4
2022-12-26T03:39:06.382Z,6.4
2022-12-26T03:40:06.525Z,7
2022-12-26T03:41:05.817Z,6.4
2022-12-26T03:42:06.086Z,6.4
2022-12-26T03:43:06.089Z,6.4
2022-12-26T03:44:06.466Z,6.4
2022-12-26T03:45:05.447Z,7
2022-12-26T03:46:06.669Z,6.4
2022-12-26T03:47:06.502Z,6.4
2022-12-26T03:48:05.707Z,6.4
2022-12-26T03:49:06.608Z,6.4
2022-12-26T03:50:06.216Z,6.5
2022-12-26T03:51:06.112Z,6.5
2022-12-26T03:52:06.391Z,6.5
2022-12-26T03:53:05.978Z,6.5
2022-12-26T03:54:06.511Z,6.5
2022-12-26T03:55:05.902Z,6.5
2022-12-26T03:56:06.136Z,6.4
2022-12-26T03:57:05.750Z,7
2022-12-26T03:58:05.841Z,7
2022-12-26T03:59:06.040Z,6.4
2022-12-26T04:00:06.584Z,6.4
2022-12-26T04:01:06.383Z,6.4
2022-12-26T04:02:06.302Z,6.4
2022-12-26T04:03:05.699Z,6.4
2022-12-26T04:04:06.181Z,6.4
2022-12-26T04:05:05.932Z,6.4
2022-12-26T04:06:05.638Z,6.4
2022-12-26T04:07:06.214Z,6.4
2022-12-26T04:08:05.827Z,6.4
2022-12-26T04:09:05.178Z,6.4
2022-12-26T04:10:05.374Z,6.4
2022-12-26T04:11:05.640Z,6.4
2022-12-26T04:12:06.202Z,6.4
2022-12-26T04:13:06.076Z,6.4
2022-12-26T04:14:05.644Z,6.4
2022-12-26T04:15:06.117Z,6.4
2022-12-26T04:16:06.193Z,6.4
2022-12-26T04:17:06.542Z,6.4
2022-12-26T04:18:05.889Z,6.4
2022-12-26T04:19:05.626Z,6.4
2022-12-26T04:20:05.915Z,6.4
2022-12-26T04:21:04.961Z,6.4
2022-12-26T04:22:06.657Z,6.4
2022-12-26T04:23:06.257Z,7
2022-12-26T04:24:05.824Z,7
2022-12-26T04:25:06.503Z,6.4
2022-12-26T04:26:06.554Z,6.4
2022-12-26T04:27:06.136Z,6.4
2022-12-26T04:28:06.051Z,6.4
2022-12-26T04:29:06.435Z,6.4
2022-12-26T04:30:06.091Z,6.4
2022-12-26T04:31:06.634Z,6.4
2022-12-26T04:32:06.032Z,7
2022-12-26T04:33:05.045Z,7
2022-12-26T04:34:06.466Z,6.4
2022-12-26T04:35:06.031Z,6.4
2022-12-26T04:36:05.986Z,6.4
2022-12-26T04:37:06.253Z,6.4
2022-12-26T04:38:05.638Z,6.4
2022-12-26T04:39:05.733Z,6.4
2022-12-26T04:40:05.946Z,6.4
2022-12-26T04:41:05.743Z,6.4
2022-12-26T04:42:05.727Z,6.4
2022-12-26T04:43:54.070Z,6.4
2022-12-26T04:45:05.218Z,7
2022-12-26T04:46:05.881Z,6.4
2022-12-26T04:47:06.220Z,7
2022-12-26T04:48:06.010Z,7
2022-12-26T04:49:06.218Z,6.4
2022-12-26T04:50:05.790Z,6.5
2022-12-26T04:51:05.644Z,6.4
2022-12-26T04:52:06.398Z,6.5
2022-12-26T04:53:06.246Z,6.5
2022-12-26T04:54:05.705Z,6.4
2022-12-26T04:55:05.644Z,6.5
2022-12-26T04:56:06.090Z,6.5
2022-12-26T04:57:05.431Z,6.5
2022-12-26T04:58:06.447Z,6.5
2022-12-26T04:59:06.421Z,6.6
2022-12-26T05:00:05.635Z,6.6
2022-12-26T05:01:06.499Z,6.5
2022-12-26T05:02:06.084Z,6.5
2022-12-26T05:03:06.803Z,6.5
2022-12-26T05:04:06.554Z,6.5
2022-12-26T05:05:06.043Z,6.5
2022-12-26T05:06:06.030Z,6.5
2022-12-26T05:07:05.928Z,6.6
2022-12-26T05:08:05.564Z,6.5
2022-12-26T05:09:04.953Z,6.5
2022-12-26T05:10:06.375Z,6.5
2022-12-26T05:11:05.975Z,6.5
2022-12-26T05:12:06.060Z,6.5
2022-12-26T05:13:05.984Z,6.5
2022-12-26T05:14:06.616Z,6.5
2022-12-26T05:15:06.170Z,6.4
2022-12-26T05:16:06.044Z,6.5
2022-12-26T05:17:06.700Z,6.5
2022-12-26T05:18:06.213Z,6.5
2022-12-26T05:19:06.219Z,7
2022-12-26T05:20:05.603Z,6.4
2022-12-26T05:21:06.000Z,6.4
2022-12-26T05:22:05.665Z,6.4
2022-12-26T05:23:06.527Z,6.5
2022-12-26T05:24:06.443Z,6.5
2022-12-26T05:25:06.545Z,6.5
2022-12-26T05:26:05.803Z,6.5
2022-12-26T05:27:06.105Z,6.5
2022-12-26T05:28:06.541Z,6.5
2022-12-26T05:29:05.671Z,6.5
2022-12-26T05:30:06.383Z,6.5
2022-12-26T05:31:06.198Z,6.5
2022-12-26T05:32:06.460Z,6.5
2022-12-26T05:33:06.442Z,7
2022-12-26T05:34:06.233Z,6.5
2022-12-26T05:35:06.405Z,6.5
2022-12-26T05:36:06.558Z,6.5
2022-12-26T05:37:06.018Z,6.5
2022-12-26T05:38:06.563Z,6.5
2022-12-26T05:39:05.974Z,6.5
2022-12-26T05:40:06.565Z,6.5
2022-12-26T05:41:06.011Z,6.5
2022-12-26T05:42:05.835Z,6.5
2022-12-26T05:43:05.753Z,6.5
2022-12-26T05:44:05.844Z,6.4
2022-12-26T05:45:06.112Z,6.5
2022-12-26T05:46:05.794Z,6.4
2022-12-26T05:47:05.998Z,6.5
2022-12-26T05:48:05.966Z,6.5
2022-12-26T05:49:06.360Z,6.5
2022-12-26T05:50:05.897Z,6.5
2022-12-26T05:51:06.352Z,6.5
2022-12-26T05:52:06.070Z,6.5
2022-12-26T05:53:06.285Z,6.5
2022-12-26T05:54:05.405Z,6.5
2022-12-26T05:55:04.834Z,6.5
2022-12-26T05:56:06.211Z,6.6
2022-12-26T05:57:05.853Z,6.6
2022-12-26T05:58:05.681Z,7
2022-12-26T05:59:05.793Z,7
2022-12-26T06:00:06.312Z,6.6
2022-12-26T06:01:06.150Z,6.6
2022-12-26T06:02:06.275Z,7
2022-12-26T06:03:06.750Z,6.6
2022-12-26T06:04:06.048Z,6.6
2022-12-26T06:05:06.403Z,6.6
2022-12-26T06:06:05.242Z,6.6
2022-12-26T06:07:05.743Z,6.5
2022-12-26T06:08:06.198Z,6.5
2022-12-26T06:09:05.884Z,6.5
2022-12-26T06:10:05.943Z,6.5
2022-12-26T06:11:06.078Z,6.5
2022-12-26T06:12:05.736Z,6.5
2022-12-26T06:13:06.367Z,6.5
2022-12-26T06:14:06.075Z,6.4
2022-12-26T06:15:06.592Z,6.4
2022-12-26T06:16:05.902Z,6.4
2022-12-26T06:17:05.938Z,6.4
2022-12-26T06:18:06.451Z,6.4
2022-12-26T06:19:06.014Z,6.4
2022-12-26T06:20:06.308Z,6.4
2022-12-26T06:21:06.032Z,6.4
2022-12-26T06:22:05.623Z,6.4
2022-12-26T06:23:05.607Z,6.3
2022-12-26T06:24:06.324Z,6.3
2022-12-26T06:25:06.545Z,6.3
2022-12-26T06:26:05.910Z,6.3
2022-12-26T06:27:06.565Z,6.3
2022-12-26T06:28:06.262Z,6.3
2022-12-26T06:29:05.901Z,6.3
2022-12-26T06:30:06.294Z,6.3
2022-12-26T06:31:05.952Z,6.2
2022-12-26T06:32:06.275Z,6.3
2022-12-26T06:33:05.664Z,6.2
2022-12-26T06:34:05.881Z,6.2
2022-12-26T06:35:06.430Z,6.3
2022-12-26T06:36:05.767Z,6.3
2022-12-26T06:37:06.506Z,6.2
2022-12-26T06:38:06.649Z,6.2
2022-12-26T06:39:06.551Z,6.2
2022-12-26T06:40:06.188Z,6.2
2022-12-26T06:41:05.517Z,6.2
2022-12-26T06:42:06.447Z,6
2022-12-26T06:43:05.932Z,6.2
2022-12-26T06:44:06.041Z,6.2
2022-12-26T06:45:06.323Z,6.2
2022-12-26T06:46:05.852Z,6.2
2022-12-26T06:47:06.157Z,6.2
2022-12-26T06:48:05.547Z,6.2
2022-12-26T06:49:06.147Z,6.1
2022-12-26T06:50:06.200Z,6.1
2022-12-26T06:51:05.677Z,6.2
2022-12-26T06:52:05.850Z,6.2
2022-12-26T06:53:06.539Z,6.2
2022-12-26T06:54:06.192Z,6
2022-12-26T06:55:06.127Z,6
2022-12-26T06:56:05.977Z,6
2022-12-26T06:57:05.582Z,6.2
2022-12-26T06:58:06.028Z,6.2
2022-12-26T06:59:05.751Z,6.2
2022-12-26T07:00:06.464Z,6.2
2022-12-26T07:01:06.894Z,6.2
2022-12-26T07:02:06.668Z,6.2
2022-12-26T07:03:05.960Z,6.3
2022-12-26T07:04:05.931Z,6.3
2022-12-26T07:05:05.374Z,6.3
2022-12-26T07:06:06.485Z,6.3
2022-12-26T07:07:05.578Z,6.3
2022-12-26T07:08:06.285Z,6.3
2022-12-26T07:09:06.196Z,6.3
2022-12-26T07:10:05.888Z,6.4
2022-12-26T07:11:06.406Z,6.4
2022-12-26T07:12:06.269Z,7
2022-12-26T07:13:06.469Z,6.4
2022-12-26T07:14:06.414Z,6.4
2022-12-26T07:15:06.408Z,6.4
2022-12-26T07:16:06.002Z,6.4
2022-12-26T07:17:06.468Z,7
2022-12-26T07:18:06.421Z,7
2022-12-26T07:19:05.671Z,6.4
2022-12-26T07:20:06.379Z,6.4
2022-12-26T07:21:05.823Z,6.4
2022-12-26T07:22:05.695Z,6.4
2022-12-26T07:23:06.438Z,6.4
2022-12-26T07:24:05.941Z,6.4
2022-12-26T07:25:06.200Z,6.4
2022-12-26T07:26:05.718Z,6.4
2022-12-26T07:27:05.934Z,6.4
2022-12-26T07:28:06.000Z,6.4
2022-12-26T07:29:06.015Z,7
2022-12-26T07:30:05.562Z,7
2022-12-26T07:31:06.602Z,6.5
2022-12-26T07:32:06.496Z,6.5
2022-12-26T07:33:05.988Z,6.5
2022-12-26T07:34:05.876Z,6.6
2022-12-26T07:35:06.550Z,6.6
2022-12-26T07:36:06.133Z,6.6
2022-12-26T07:37:06.447Z,6.6
2022-12-26T07:38:06.449Z,6.6
2022-12-26T07:39:05.469Z,6.7
2022-12-26T07:40:05.832Z,6.6
2022-12-26T07:41:06.000Z,6.7
2022-12-26T07:42:05.570Z,6.7
2022-12-26T07:43:05.754Z,6.7
2022-12-26T07:44:05.990Z,6.7
2022-12-26T07:45:06.233Z,6.7
2022-12-26T07:46:05.847Z,6.7
2022-12-26T07:47:06.413Z,6.7
2022-12-26T07:48:06.470Z,6.7
2022-12-26T07:49:06.009Z,6.7
2022-12-26T07:50:05.985Z,6.7
2022-12-26T07:51:05.469Z,6.8
2022-12-26T07:52:05.949Z,6.7
2022-12-26T07:53:06.515Z,6.8
2022-12-26T07:54:14.124Z,6.8
2022-12-26T07:55:06.024Z,6.8
2022-12-26T07:56:06.289Z,6.8
2022-12-26T07:57:51.417Z,6.8
2022-12-26T07:59:06.056Z,6.8
2022-12-26T08:00:06.019Z,6.7
2022-12-26T08:01:05.857Z,6.8
2022-12-26T08:02:06.942Z,6.8
2022-12-26T08:03:12.279Z,6.8
2022-12-26T08:04:06.307Z,6.8
2022-12-26T08:05:05.592Z,6.8
2022-12-26T08:06:06.297Z,6.8
2022-12-26T08:07:05.776Z,6.8
2022-12-26T08:08:06.475Z,6.8
2022-12-26T08:09:06.374Z,6.8
2022-12-26T08:10:05.291Z,6.8
2022-12-26T08:11:06.467Z,6.8
2022-12-26T08:12:06.029Z,6.8
2022-12-26T08:13:05.633Z,6.8
2022-12-26T08:14:06.376Z,6.8
2022-12-26T08:15:06.070Z,6.9
2022-12-26T08:16:04.807Z,7
2022-12-26T08:17:06.360Z,7
2022-12-26T08:18:06.448Z,7
2022-12-26T08:19:06.038Z,7
2022-12-26T08:20:06.264Z,7
2022-12-26T08:21:06.469Z,7.1
2022-12-26T08:22:05.781Z,7.2
2022-12-26T08:23:06.124Z,7.2
2022-12-26T08:24:06.072Z,7.2
2022-12-26T08:25:05.644Z,7.3
2022-12-26T08:26:05.027Z,7.3
2022-12-26T08:27:05.954Z,7.4
2022-12-26T08:28:05.702Z,8
2022-12-26T08:29:06.310Z,8
2022-12-26T08:30:06.192Z,7.4
2022-12-26T08:31:05.901Z,7.4
2022-12-26T08:32:05.844Z,7.6
2022-12-26T08:33:05.646Z,7.6
2022-12-26T08:34:05.942Z,7.8
2022-12-26T08:35:06.088Z,7.8
2022-12-26T08:36:05.614Z,7.8
2022-12-26T08:37:05.087Z,8
2022-12-26T08:38:06.363Z,8
2022-12-26T08:39:05.952Z,8
2022-12-26T08:40:06.209Z,8
2022-12-26T08:41:06.168Z,8.3
2022-12-26T08:42:06.583Z,8.4
2022-12-26T08:44:28.110Z,8.4
2022-12-26T08:44:31.610Z,8.4
2022-12-26T08:46:06.088Z,8.5
2022-12-26T08:47:05.616Z,8.6
2022-12-26T08:48:06.005Z,8.6
2022-12-26T08:49:05.460Z,8.6
2022-12-26T08:50:05.943Z,8.6
2022-12-26T08:51:05.715Z,8.6
2022-12-26T08:52:05.991Z,8.6
2022-12-26T08:53:05.557Z,8.6
2022-12-26T08:54:06.317Z,8.7
2022-12-26T08:55:06.025Z,8.7
2022-12-26T08:56:06.534Z,8.7
2022-12-26T08:57:06.356Z,8.7
2022-12-26T08:58:06.227Z,8.7
2022-12-26T08:59:05.746Z,8.6
2022-12-26T09:00:04.690Z,8.6
2022-12-26T09:01:06.029Z,8.7
2022-12-26T09:02:06.334Z,8.7
2022-12-26T09:03:06.455Z,8.7
2022-12-26T09:04:06.322Z,8.7
2022-12-26T09:05:06.512Z,8.6
2022-12-26T09:06:10.388Z,8.6
2022-12-26T09:07:05.779Z,8.6
2022-12-26T09:08:05.834Z,8.7
2022-12-26T09:09:06.245Z,8.7
2022-12-26T09:10:05.707Z,8.6
2022-12-26T09:11:06.362Z,8.6
2022-12-26T09:12:05.749Z,8.7
2022-12-26T09:13:06.525Z,8.6
2022-12-26T09:14:06.345Z,8.7
2022-12-26T09:15:06.457Z,8.7
2022-12-26T09:16:05.760Z,8.7
2022-12-26T09:17:06.650Z,8.7
2022-12-26T09:18:06.560Z,9
2022-12-26T09:19:06.252Z,8.7
2022-12-26T09:20:06.069Z,8.7
2022-12-26T09:21:05.818Z,8.7
2022-12-26T09:22:06.391Z,8.7
2022-12-26T09:23:06.014Z,8.7
2022-12-26T09:24:05.762Z,8.7
2022-12-26T09:25:06.449Z,8.8
2022-12-26T09:26:05.948Z,8.8
2022-12-26T09:27:06.138Z,8.8
2022-12-26T09:28:06.348Z,8.8
2022-12-26T09:29:05.950Z,8.8
2022-12-26T09:30:06.223Z,8.8
2022-12-26T09:31:06.757Z,8.8
2022-12-26T09:32:06.388Z,8.8
2022-12-26T09:33:05.633Z,8.9
2022-12-26T09:34:05.816Z,8.9
2022-12-26T09:35:06.062Z,8.9
2022-12-26T09:36:15.321Z,8.9
2022-12-26T09:37:05.801Z,8.9
2022-12-26T09:38:05.594Z,9
2022-12-26T09:39:05.961Z,8.9
2022-12-26T09:40:05.749Z,8.9
2022-12-26T09:41:06.045Z,8.9
2022-12-26T09:42:06.542Z,8.9
2022-12-26T09:43:05.640Z,8.9
2022-12-26T09:44:05.994Z,8.9
2022-12-26T09:45:06.622Z,8.9
2022-12-26T09:46:06.266Z,9
2022-12-26T09:47:06.179Z,9
2022-12-26T09:48:05.812Z,9
2022-12-26T09:49:04.991Z,9
2022-12-26T09:50:06.410Z,9
2022-12-26T09:51:05.776Z,9
2022-12-26T09:52:06.311Z,9.1
2022-12-26T09:53:05.797Z,9
2022-12-26T09:54:06.037Z,9.2
2022-12-26T09:55:06.140Z,9.2
2022-12-26T09:56:06.347Z,9.2
2022-12-26T09:57:15.380Z,9.2
2022-12-26T09:58:05.931Z,9.3
2022-12-26T09:59:05.757Z,9.2
2022-12-26T10:00:06.229Z,9.3
2022-12-26T10:01:06.739Z,9.3
2022-12-26T10:02:06.864Z,9.4
2022-12-26T10:03:06.074Z,9.4
2022-12-26T10:04:06.176Z,9.4
2022-12-26T10:05:05.916Z,9.4
2022-12-26T10:06:05.872Z,9.4
2022-12-26T10:07:06.245Z,9.4
2022-12-26T10:08:06.598Z,9.4
2022-12-26T10:09:05.822Z,9.5
2022-12-26T10:10:05.442Z,9.5
2022-12-26T10:11:06.145Z,9.5
2022-12-26T10:12:06.035Z,9.5
2022-12-26T10:13:05.658Z,10
2022-12-26T10:14:05.950Z,10
2022-12-26T10:15:06.475Z,9.6
2022-12-26T10:16:06.233Z,9.6
2022-12-26T10:17:06.589Z,9.6
2022-12-26T10:18:06.176Z,9.6
2022-12-26T10:19:05.814Z,9.7
2022-12-26T10:20:06.031Z,9.8
2022-12-26T10:21:06.418Z,9.8
2022-12-26T10:22:06.073Z,9.8
2022-12-26T10:23:04.939Z,9.8
2022-12-26T10:24:06.145Z,9.9
2022-12-26T10:25:05.967Z,10
2022-12-26T10:26:05.937Z,9.9
2022-12-26T10:27:06.323Z,10
2022-12-26T10:28:06.587Z,10
2022-12-26T10:29:05.760Z,10
2022-12-26T10:30:06.125Z,10
2022-12-26T10:31:06.663Z,10.1
2022-12-26T10:32:05.555Z,10.1
2022-12-26T10:33:05.809Z,10.2
2022-12-26T10:34:04.986Z,10.3
2022-12-26T10:35:05.674Z,10.3
2022-12-26T10:36:05.574Z,10.4
2022-12-26T10:37:05.951Z,10
2022-12-26T10:38:05.992Z,10
2022-12-26T10:39:06.495Z,10.5
2022-12-26T10:40:05.905Z,10.6
2022-12-26T10:41:06.342Z,10.6
2022-12-26T10:42:06.428Z,10.7
2022-12-26T10:43:06.004Z,10.8
2022-12-26T10:44:05.727Z,10.8
2022-12-26T10:45:06.381Z,10
2022-12-26T10:46:06.548Z,10.8
2022-12-26T10:47:05.634Z,10.8
2022-12-26T10:48:06.059Z,10.8
2022-12-26T10:49:06.208Z,11
2022-12-26T10:50:06.100Z,10.9
2022-12-26T10:51:05.713Z,11
2022-12-26T10:52:06.050Z,11
2022-12-26T10:53:05.875Z,11
2022-12-26T10:54:05.927Z,11.1
2022-12-26T10:55:37.143Z,11.2
2022-12-26T10:56:06.193Z,11.3
2022-12-26T10:57:05.426Z,11.3
2022-12-26T10:58:06.571Z,11.4
2022-12-26T10:59:06.184Z,11.5
2022-12-26T11:00:06.596Z,11
2022-12-26T11:01:06.292Z,11.7
2022-12-26T11:02:11.306Z,11.7
2022-12-26T11:03:06.686Z,12
2022-12-26T11:04:06.048Z,12
2022-12-26T11:06:09.754Z,12
2022-12-26T11:06:14.063Z,12.1
2022-12-26T11:07:06.555Z,12.1
2022-12-26T11:08:05.741Z,12.1
2022-12-26T11:09:06.270Z,12.1
2022-12-26T11:10:05.783Z,12.1
2022-12-26T11:11:05.682Z,12
2022-12-26T11:12:05.863Z,12
2022-12-26T11:13:06.509Z,12
2022-12-26T11:14:07.457Z,12
2022-12-26T11:15:06.083Z,11.9
2022-12-26T11:16:06.607Z,11.9
2022-12-26T11:17:05.504Z,11.9
2022-12-26T11:18:05.878Z,11.9
2022-12-26T11:19:06.532Z,11.8
2022-12-26T11:20:05.904Z,11.8
2022-12-26T11:21:12.689Z,11.9
2022-12-26T11:22:06.552Z,11
2022-12-26T11:23:05.733Z,11.9
2022-12-26T11:24:05.594Z,11
2022-12-26T11:25:05.537Z,11.8
2022-12-26T11:26:06.481Z,11.8
2022-12-26T11:27:12.783Z,11
2022-12-26T11:28:06.053Z,11.8
2022-12-26T11:29:06.325Z,11.8
2022-12-26T11:30:06.562Z,11.8
2022-12-26T11:31:05.863Z,11.8
2022-12-26T11:32:06.063Z,11.8
2022-12-26T11:33:14.415Z,11.8
2022-12-26T11:34:06.021Z,11.8
2022-12-26T11:35:06.112Z,11.8
2022-12-26T11:36:06.395Z,11.7
2022-12-26T11:37:06.090Z,11.7
2022-12-26T11:38:06.083Z,11.7
2022-12-26T11:39:06.592Z,11.7
2022-12-26T11:40:06.420Z,11.6
2022-12-26T11:41:05.845Z,11.6
2022-12-26T11:42:05.961Z,11.6
2022-12-26T11:43:06.017Z,11.6
2022-12-26T11:44:05.587Z,11.6
2022-12-26T11:45:06.038Z,11.6
2022-12-26T11:46:05.979Z,11.6
2022-12-26T11:47:06.031Z,11
2022-12-26T11:48:05.819Z,11.6
2022-12-26T11:49:05.804Z,11
2022-12-26T11:50:05.971Z,11.6
2022-12-26T11:51:06.521Z,11.6
2022-12-26T11:52:05.800Z,11.6
2022-12-26T11:53:06.425Z,11.5
2022-12-26T11:54:05.575Z,11.5
2022-12-26T11:55:05.874Z,11.5
2022-12-26T11:56:05.278Z,11.5
2022-12-26T11:57:06.254Z,11.4
2022-12-26T11:58:05.656Z,11.4
2022-12-26T11:59:05.598Z,11
2022-12-26T12:00:05.975Z,11.4
2022-12-26T12:01:06.303Z,11.4
2022-12-26T12:02:07.032Z,11.4
2022-12-26T12:03:05.963Z,11.4
2022-12-26T12:04:06.054Z,11.4
2022-12-26T12:05:06.367Z,11.3
2022-12-26T12:06:05.801Z,11.3
2022-12-26T12:07:05.235Z,11.3
2022-12-26T12:08:05.311Z,11.3
2022-12-26T12:09:10.230Z,11.3
2022-12-26T12:10:05.632Z,11.3
2022-12-26T12:11:05.965Z,11.2
2022-12-26T12:12:06.031Z,11.2
2022-12-26T12:13:06.313Z,11.2
2022-12-26T12:14:06.525Z,11.2
2022-12-26T12:15:05.836Z,11.2
2022-12-26T12:16:06.241Z,11.1
2022-12-26T12:17:06.165Z,11.1
2022-12-26T12:18:06.491Z,11
2022-12-26T12:19:05.165Z,11
2022-12-26T12:20:05.077Z,11
2022-12-26T12:21:05.525Z,11
2022-12-26T12:22:05.557Z,10.9
2022-12-26T12:23:05.649Z,10.9
2022-12-26T12:24:05.687Z,11
2022-12-26T12:25:05.949Z,11
2022-12-26T12:26:06.008Z,11
2022-12-26T12:27:09.112Z,10.9
2022-12-26T12:28:05.603Z,10.9
2022-12-26T12:29:06.543Z,10.8
2022-12-26T12:30:06.016Z,10.8
2022-12-26T12:31:05.779Z,10.8
2022-12-26T12:32:06.946Z,10.8
2022-12-26T12:33:06.266Z,10.7
2022-12-26T12:34:06.296Z,10.7
2022-12-26T12:35:06.239Z,10.7
2022-12-26T12:36:05.941Z,10.7
2022-12-26T12:37:06.230Z,10.6
2022-12-26T12:38:06.282Z,10.6
2022-12-26T12:39:06.313Z,10.5
2022-12-26T12:40:05.959Z,10.5
2022-12-26T12:41:05.831Z,10.5
2022-12-26T12:42:05.761Z,10.5
2022-12-26T12:43:05.468Z,10.5
2022-12-26T12:44:06.178Z,10.5
2022-12-26T12:45:05.979Z,10.4
2022-12-26T12:46:06.115Z,10.4
2022-12-26T12:47:06.300Z,10
2022-12-26T12:48:06.441Z,10
2022-12-26T12:49:05.764Z,10.3
2022-12-26T12:50:05.653Z,10.3
2022-12-26T12:51:06.591Z,10.3
2022-12-26T12:52:06.557Z,10.3
2022-12-26T12:53:06.412Z,10.2
2022-12-26T12:54:06.320Z,10.3
2022-12-26T12:55:05.760Z,10.3
2022-12-26T12:56:06.509Z,10.3
2022-12-26T12:57:06.230Z,10.3
2022-12-26T12:58:06.326Z,10.3
2022-12-26T12:59:06.286Z,10.3
2022-12-26T13:00:06.216Z,10.2
2022-12-26T13:01:05.926Z,10
2022-12-26T13:02:20.599Z,10.2
2022-12-26T13:03:06.883Z,10.2
2022-12-26T13:04:06.391Z,10.2
2022-12-26T13:05:06.449Z,10.1
2022-12-26T13:06:06.383Z,10.1
2022-12-26T13:07:05.416Z,10.1
2022-12-26T13:08:05.795Z,10.1
2022-12-26T13:09:05.541Z,10.1
2022-12-26T13:10:05.913Z,10.1
2022-12-26T13:11:06.490Z,10
2022-12-26T13:12:06.533Z,10
2022-12-26T13:13:06.495Z,10
2022-12-26T13:14:04.741Z,10
2022-12-26T13:15:06.274Z,10
2022-12-26T13:16:05.671Z,10
2022-12-26T13:17:06.084Z,9.9
2022-12-26T13:18:05.932Z,9.9
2022-12-26T13:19:06.642Z,9.9
2022-12-26T13:20:07.466Z,9.9
2022-12-26T13:21:06.261Z,9.9
2022-12-26T13:22:06.147Z,9.8
2022-12-26T13:23:06.160Z,9.8
2022-12-26T13:24:05.515Z,9.8
2022-12-26T13:25:06.783Z,9.8
2022-12-26T13:26:09.165Z,9.7
2022-12-26T13:27:06.361Z,9.7
2022-12-26T13:28:06.372Z,9.7
2022-12-26T13:29:06.333Z,9.6
2022-12-26T13:30:06.259Z,9.6
2022-12-26T13:31:06.352Z,9.7
2022-12-26T13:32:06.397Z,9.7
2022-12-26T13:33:06.199Z,9.6
2022-12-26T13:34:06.285Z,9.6
2022-12-26T13:35:06.059Z,9.6
2022-12-26T13:36:06.072Z,9.6
2022-12-26T13:37:06.149Z,9.6
2022-12-26T13:38:05.992Z,9.6
2022-12-26T13:39:05.973Z,9.6
2022-12-26T13:40:05.776Z,9.6
2022-12-26T13:41:05.979Z,9.6
2022-12-26T13:42:06.110Z,9.5
2022-12-26T13:43:05.575Z,9.5
2022-12-26T13:44:05.732Z,9.5
2022-12-26T13:45:06.513Z,9.5
2022-12-26T13:46:06.328Z,9.5
2022-12-26T13:47:06.222Z,9.5
2022-12-26T13:48:06.207Z,9.5
2022-12-26T13:49:06.534Z,9.4
2022-12-26T13:50:06.477Z,9.4
2022-12-26T13:51:05.685Z,9.4
2022-12-26T13:52:06.556Z,9
2022-12-26T13:53:06.548Z,9
2022-12-26T13:54:06.470Z,9.4